Meacham, OR (97859)

9:11 PM PST on December 08, 2016 (GMT -0800)
Meacham | | Change Station
Active Advisory: Winter Weather Advisory

Elev 3720 ft 45.51 °N, 118.42 °W | Updated 15 minutes ago

Overcast
Overcast
21 °F
Feels Like 21 °F
N
0
Wind Variable Wind from North

Today
High -- | Low -- °F
--% Chance of Precip.
Yesterday
High -- | Low -- °F
Precip. -- in
Pressure 30.06 in
Visibility 10.0 miles
Clouds Overcast 3800 ft
Dew Point 15 °F
Humidity 78%
Rainfall 0.17 in
Snow Depth Not available.
7:21 AM 4:10 PM
Waxing Gibbous, 70% visible
METAR KMEH 090456Z AUTO 00000KT 10SM OVC038 M06/M09 A2994 RMK AO2 SNE38 SLP179 P0001 T10611094
Pressure 30.06 in
Visibility 10.0 miles
Clouds Overcast 3800 ft
Dew Point 15 °F
Humidity 78%
Rainfall 0.17 in
Snow Depth Not available.
7:21 AM 4:10 PM
Waxing Gibbous, 70% visible
METAR KMEH 090456Z AUTO 00000KT 10SM OVC038 M06/M09 A2994 RMK AO2 SNE38 SLP179 P0001 T10611094

10-Day Weather Forecast

Almanac

Astronomy

Dec. 08, 2016 Rise Set
Actual Time
Civil Twilight
Nautical Twilight
Astronomical Twilight
Moon
Length of Visible Light
Length of Day
Tomorrow will be .
, % of the Moon is Illuminated

Today's Extremes

State Highs State Lows

Community

WunderPhotos

Upload Photos

1,956,370 photos uploaded!

WunderBlog® & News

Nearby

Air Quality

  Air Quality AQ Index Pollutant
Not available.

Snow Depth

Station Depth Elevation

Earthquake Activity

City Distance Mag. Time & Date
Minimum magnitude displayed is 2.5.

Coastal Water Temperatures

Place Temperature

Stations

Nearby Weather Stations

Station Location Temp. Windchill Dew Point Humidity Wind Precip. Elev Updated Type
                   

Watches & Warnings

Winter Weather Advisory
Issued: 2:34 PM PST Dec. 8, 2016 – National Weather Service

... Winter Weather Advisory remains in effect until 4 am PST
Saturday...

* locations... Meacham... Tollgate... ski bluewood resort.

* Snow accumulations... 48 hour storm total of 8 to 15 inches
expected.

* Timing... snow will continue tonight... with a prolonged period of
snow through Friday night.

* Impacts... area roadways will be snow covered and slick.

* Winds... southwest 5 to 15 mph with gusts up to 30 mph.

* Snow level... below 3000 feet.

* Web page: for a detailed view of the hazard area visit
http://www.Wrh.NOAA.Gov/map/?Wfo=pdt.

Precautionary/preparedness actions... a Winter Weather Advisory
for snow means that periods of snow will cause primarily travel
difficulties. Be prepared for snow covered roads and limited
visibilities... and use caution while driving.